Sergey Efimov

Recruteur en chef - Krasnodar
4 Juin 2028
Dimanche
Processus

Personnalité

Adaptabilité (19) Ambition (9) Controverse (5) Loyauté (6) Pression (18) Professionnalisme (18) Sportivité (9) Tempérament (9)

Profil

Style d'entraînement Démocratique
Diplôme National B
Détermination 11
Gestion des joueurs 5
Motivation 11
Discipline 7
Satisfaction professionnelle
100%
Fatigue
0%
Rôle Recruteur en chef
Salaire 41.8K p/s
Contrat 14.03.2030

Performance

Comportement Bon
Efficacité de l'entraînement
46%
Développement des joueurs
65%
Prévention des blessures
40%
Mise en place tactique
50%

Suivi en cours

73
Joueur Club Statut Capacité Confiance Observé Dernière observation Dernier vote
Mats Egbring Heerenveen Actif 103 / 115 40% 4 21.02.2028 -
Matvey Bardachev Zenit Actif 106 / 116 40% 1 21.02.2028 -
Makar Vysochenko Spartak Moscow Actif 90 / 90 40% 1 21.02.2028 -
Brayan Gil Baltika Perdu 124 / 122 83% 1 14.02.2028 Approuver
Louka Gautier Chamois Niortais Actif 103 / 98 40% 1 14.02.2028 -
Filip Reshane Lillestrom Actif 102 / 109 40% 1 14.02.2028 -
Mattia Mannini Juve Stabia Actif 121 / 126 40% 2 07.02.2028 -
Bernardo Lima Porto Actif 109 / 112 40% 1 07.02.2028 Plus d'infos
Ezra Mayers West Ham United Actif 125 / 122 40% 8 25.01.2028 -
Jonny Shore New York City Actif 97 / 106 40% 3 25.01.2028 -
Skima Togbe Novi Pazar Actif 96 / 96 40% 1 25.01.2028 -
Andreas Nygård Zenit Penza Actif 90 / 93 52% 1 / 1m 06.10.2027 -
Juan David Obando Dinamo Barnaul Actif 93 / 98 52% 1 / 1m 06.10.2027 -
Dmitry Tsvetkov Dinamo Barnaul Actif 72 / 75 42% 1 / 1m 06.10.2027 -
Magomednabi Yagjaev Nart Actif 87 / 87 30% 1 / 1m 06.10.2027 -
Rafael Vargas Cortulua Actif 88 / 103 40% 6 06.09.2027 -
Diego Cheuquepal Plaza Colonia Actif 92 / 118 40% 2 06.09.2027 -
Yannick Geiger BK Hacken Actif 106 / 110 40% 2 03.09.2027 -
Brandon Powell Blackburn Rovers Actif 117 / 119 40% 1 03.09.2027 -
Teo Rodríguez Pagano San Lorenzo Actif 111 / 115 40% 7 02.09.2027 -
Gideon Manaseh Ikorodu City Actif 93 / 105 40% 3 02.09.2027 -
Yunus Emre Konak Brentford Actif 126 / 129 40% 1 01.09.2027 -
Nicolas Sport Recife Actif 99 / 99 40% 1 01.09.2027 -
Agustín Obregón River Plate Actif 118 / 128 40% 1 01.09.2027 -
Alexis Pereyra Vélez Actif 98 / 94 40% 1 30.08.2027 -
Ayyoub Bouaddi Manchester City Actif 142 / 151 40% 2 29.08.2027 -
Stephen Mfuni Manchester City Actif 123 / 124 40% 1 28.08.2027 -
Ollie Scarles West Ham United Actif 134 / 143 40% 4 27.08.2027 -
Andrey Ivlev Dinamo Moscow Actif 117 / 130 40% 2 27.08.2027 -
Martín Jiménez Audax Italiano Actif 98 / 94 40% 1 27.08.2027 -
Celías Ingenthron Racing Club Actif 106 / 116 40% 1 25.08.2027 -
Aiden Hezarkhani Real Salt Lake Actif 94 / 85 40% 1 25.08.2027 -
Axel Tape Bayer Leverkusen Actif 133 / 127 40% 1 23.08.2027 -
Elias Baum Eintracht Frankfurt Actif 130 / 128 40% 4 21.08.2027 -
Tyson Pearce St. Louis CITY SC Actif 86 / 105 40% 1 21.08.2027 -
Mattia Puzone Siracusa Actif 100 / 106 40% 2 19.08.2027 -
Christ Inao Oulaï Fiorentina Actif 144 / 148 40% 3 18.08.2027 -
Honest Ahanor Fiorentina Actif 136 / 144 40% 4 17.08.2027 -
Felipe Obradovich Rayo Vallecano Actif 113 / 116 40% 1 16.08.2027 -
Davide Bartesaghi AC Milan Actif 138 / 137 40% 2 15.08.2027 -
Alessio Insignito Spezia Actif 99 / 105 40% 1 13.08.2027 -
Eliás Montiel Athletic Bilbao Actif 131 / 144 40% 4 11.08.2027 -
Simone Kosijer Triestina Actif 100 / 113 40% 3 11.08.2027 -
Saeed Abdulrahman Al Shabab Actif 108 / 113 40% 1 11.08.2027 -
Kazunari Kita Real Sociedad Actif 102 / 109 40% 7 10.08.2027 -
Vadim Arutyunyan Dnepr Mogilev Actif 93 / 88 40% 1 10.08.2027 -
Josh King Chelsea Actif 138 / 150 40% 1 06.08.2027 -
Daniel Banjaqui Benfica Actif 115 / 136 40% 4 03.08.2027 -
Jenson Jones Peterborough United Actif 99 / 100 40% 2 01.08.2027 -
Juan Giménez Athletic Bilbao Actif 117 / 130 40% 4 30.07.2027 -
Finn Jeltsch VfB Stuttgart Actif 145 / 150 40% 1 30.07.2027 -
Dylan Lawlor Cardiff City Actif 122 / 125 40% 4 28.07.2027 -
Joe Knight Stevenage Actif 100 / 114 40% 4 28.07.2027 -
Facundo Balatti Penarol Actif 96 / 105 40% 3 25.07.2027 -
Juan David Arizala Udinese Actif 125 / 126 40% 2 24.07.2027 -
Matvey Kislyak CSKA Moscow Actif 142 / 141 40% 3 13.07.2027 -
Bahmed Deuff FC Metz Actif 119 / 128 40% 2 07.07.2027 -
Ismaël Baouf Cambuur Actif 115 / 119 40% 2 02.07.2027 -
Elie N'Gatta Sochaux Actif 98 / 105 40% 2 29.06.2027 -
Miguel Figueiredo Benfica Actif 113 / 127 40% 3 29.06.2027 -
Martim Cunha Porto Actif 102 / 102 40% 4 25.06.2027 -
Yaghoub Barage Persepolis Actif 112 / 114 40% 1 25.06.2027 -
Marius Courcoul Olympique de Marseille Actif 107 / 130 40% 1 20.02.2027 -
Victor Corona Santos Laguna Actif 106 / 97 40% 1 16.02.2027 -
Milad Mohammadi Padideh Actif 102 / 103 40% 1 16.02.2027 -
Moncef Zekri Sporting CP Actif 100 / 105 40% 1 15.02.2027 -
Saël Kumbedi VfL Wolfsburg Actif 128 / 128 40% 1 03.02.2027 -
Ivan Belikov Baltika Actif 92 / 112 72% 1 25.01.2027 Approuver
Maxim Borisko CSKA Moscow Actif 127 / 125 40% 1 27.08.2026 -
Souza Tottenham Actif 123 / 130 40% 1 13.08.2026 -
Jozhua Vertrouwd Rayo Vallecano Actif 114 / 121 40% 1 13.08.2026 -
Julián Quiñones Al-Qadisiyah Actif 137 / 135 40% 1 12.08.2026 -
Cam Bragg Southampton Actif 105 / 118 40% 1 11.08.2026 -